Flight Track Log - Related Links

Times and Time Zones

All times are in EDT time to prevent confusion due to time zone crossing. See the CMP451 flight status page for this flight to view local times or setup timezone preferences in your user account.

Time Position Orientation Groundspeed Altitude Reporting Facility
EDT Latitude Longitude Course Direction KTS MPH feet Rate Location/Type
Fri 06:47:51 AM 18.4500 -65.9667 335° Northwest 190 219 1,700  Level San Juan Center
Fri 06:48:52 AM 18.5167 -66.0000 270° West 250 288 3,600 2,380 Climbing San Juan Center
Fri 06:49:52 AM 18.5167 -66.0667 270° West 300 345 6,500 3,100 Climbing San Juan Center
Fri 06:50:52 AM 18.5167 -66.1667 270° West 300 345 9,800 1,750 Climbing San Juan Center
Fri 06:51:52 AM 18.5167 -66.2500 261° West 340 391 10,000 942 Climbing San Juan Center
Fri 06:52:53 AM 18.5000 -66.3667 242° Southwest 360 414 11,700 2,231 Climbing San Juan Center
Fri 06:53:53 AM 18.4500 -66.4667 242° Southwest 370 426 14,500 2,678 Climbing San Juan Center
Fri 06:54:54 AM 18.4000 -66.5667 235° Southwest 390 449 17,100 2,430 Climbing San Juan Center
Fri 06:55:54 AM 18.3333 -66.6667 242° Southwest 400 460 19,400 2,200 Climbing San Juan Center
Fri 06:56:54 AM 18.2833 -66.7667 238° Southwest 400 460 21,500 1,934 Climbing San Juan Center
Fri 06:57:55 AM 18.2333 -66.8500 235° Southwest 410 472 23,300 1,587 Climbing San Juan Center
Fri 06:58:55 AM 18.1667 -66.9500 239° Southwest 420 483 24,700 1,587 Climbing San Juan Center
Fri 06:59:56 AM 18.1000 -67.0667 242° Southwest 420 483 26,500 1,587 Climbing San Juan Center
Fri 07:00:56 AM 18.0500 -67.1667 239° Southwest 430 495 27,900 1,250 Climbing San Juan Center
Fri 07:01:56 AM 17.9833 -67.2833 235° Southwest 440 506 29,000 1,289 Climbing San Juan Center
Fri 07:02:57 AM 17.9167 -67.3833 243° Southwest 440 506 30,500 1,475 Climbing San Juan Center
Fri 07:10:15 AM 17.5447 -68.1396 236° Southwest  Level FlightAware Approximate
Fri 07:11:15 AM 17.4815 -68.2376 236° Southwest  Level FlightAware Approximate
Fri 07:12:15 AM 17.4183 -68.3355 236° Southwest  Level FlightAware Approximate
Fri 07:13:15 AM 17.3551 -68.4333 236° Southwest  Level FlightAware Approximate
Fri 07:14:15 AM 17.2918 -68.5311 236° Southwest  Level FlightAware Approximate
Fri 07:15:15 AM 17.2284 -68.6289 236° Southwest  Level FlightAware Approximate
Fri 07:16:15 AM 17.1650 -68.7265 236° Southwest  Level FlightAware Approximate
Fri 07:17:15 AM 17.1016 -68.8241 236° Southwest  Level FlightAware Approximate
Fri 07:18:15 AM 17.0381 -68.9216 236° Southwest  Level FlightAware Approximate
Fri 07:19:15 AM 16.9746 -69.0191 236° Southwest  Level FlightAware Approximate
Fri 07:20:15 AM 16.9110 -69.1165 236° Southwest  Level FlightAware Approximate
Fri 07:21:15 AM 16.8473 -69.2138 236° Southwest  Level FlightAware Approximate
Fri 07:22:15 AM 16.7837 -69.3111 236° Southwest  Level FlightAware Approximate
Fri 07:23:15 AM 16.7199 -69.4082 236° Southwest  Level FlightAware Approximate
Fri 07:24:15 AM 16.6562 -69.5054 236° Southwest  Level FlightAware Approximate
Fri 07:25:15 AM 16.5924 -69.6024 236° Southwest  Level FlightAware Approximate
Fri 07:26:15 AM 16.5285 -69.6994 236° Southwest  Level FlightAware Approximate
Fri 07:27:15 AM 16.4646 -69.7964 235° Southwest  Level FlightAware Approximate
Fri 07:28:15 AM 16.4007 -69.8932 235° Southwest  Level FlightAware Approximate
Fri 07:29:15 AM 16.3367 -69.9901 235° Southwest  Level FlightAware Approximate
Fri 07:30:15 AM 16.2727 -70.0868 235° Southwest  Level FlightAware Approximate
Fri 07:31:15 AM 16.2086 -70.1835 235° Southwest  Level FlightAware Approximate
Fri 07:32:15 AM 16.1445 -70.2801 235° Southwest  Level FlightAware Approximate
Fri 07:33:15 AM 16.0803 -70.3766 235° Southwest  Level FlightAware Approximate
Fri 07:34:15 AM 16.0161 -70.4731 235° Southwest  Level FlightAware Approximate
Fri 07:35:15 AM 15.9518 -70.5696 235° Southwest  Level FlightAware Approximate
Fri 07:36:15 AM 15.8876 -70.6659 235° Southwest  Level FlightAware Approximate
Fri 07:37:15 AM 15.8232 -70.7622 232° Southwest  Level FlightAware Approximate
Fri 07:38:15 AM 15.7543 -70.8550 232° Southwest  Level FlightAware Approximate
Fri 07:39:15 AM 15.6853 -70.9477 232° Southwest  Level FlightAware Approximate
Fri 07:40:15 AM 15.6163 -71.0403 232° Southwest  Level FlightAware Approximate
Fri 07:41:15 AM 15.5472 -71.1329 232° Southwest  Level FlightAware Approximate
Fri 07:42:15 AM 15.4781 -71.2254 232° Southwest  Level FlightAware Approximate
Fri 07:43:15 AM 15.4090 -71.3179 232° Southwest  Level FlightAware Approximate
Fri 07:44:15 AM 15.3398 -71.4103 232° Southwest  Level FlightAware Approximate
Fri 07:45:15 AM 15.2706 -71.5026 232° Southwest  Level FlightAware Approximate
Fri 07:46:15 AM 15.2013 -71.5949 232° Southwest  Level FlightAware Approximate
Fri 07:47:15 AM 15.1320 -71.6871 232° Southwest  Level FlightAware Approximate
Fri 07:48:15 AM 15.0627 -71.7792 232° Southwest  Level FlightAware Approximate
Fri 07:49:15 AM 14.9934 -71.8713 232° Southwest  Level FlightAware Approximate
Fri 07:50:15 AM 14.9240 -71.9634 232° Southwest  Level FlightAware Approximate
Fri 07:51:15 AM 14.8545 -72.0553 232° Southwest  Level FlightAware Approximate
Fri 07:52:15 AM 14.7850 -72.1472 232° Southwest  Level FlightAware Approximate
Fri 07:53:15 AM 14.7155 -72.2391 232° Southwest  Level FlightAware Approximate
Fri 07:54:15 AM 14.6460 -72.3309 232° Southwest  Level FlightAware Approximate
Fri 07:55:15 AM 14.5764 -72.4226 232° Southwest  Level FlightAware Approximate
Fri 07:56:15 AM 14.5068 -72.5143 232° Southwest  Level FlightAware Approximate
Fri 07:57:15 AM 14.4371 -72.6059 232° Southwest  Level FlightAware Approximate
Fri 07:58:15 AM 14.3674 -72.6975 232° Southwest  Level FlightAware Approximate
Fri 07:59:15 AM 14.2977 -72.7890 232° Southwest  Level FlightAware Approximate
Fri 08:00:15 AM 14.2280 -72.8804 232° Southwest  Level FlightAware Approximate
Fri 08:01:15 AM 14.1582 -72.9718 232° Southwest  Level FlightAware Approximate
Fri 08:02:15 AM 14.0883 -73.0631 232° Southwest  Level FlightAware Approximate
Fri 08:03:15 AM 14.0185 -73.1544 232° Southwest  Level FlightAware Approximate
Fri 08:04:15 AM 13.9486 -73.2456 232° Southwest  Level FlightAware Approximate
Fri 08:05:15 AM 13.8786 -73.3368 231° Southwest  Level FlightAware Approximate
Fri 08:06:15 AM 13.8073 -73.4267 231° Southwest  Level FlightAware Approximate
Fri 08:07:15 AM 13.7358 -73.5166 231° Southwest  Level FlightAware Approximate
Fri 08:08:15 AM 13.6644 -73.6064 231° Southwest  Level FlightAware Approximate
Fri 08:09:15 AM 13.5929 -73.6962 231° Southwest  Level FlightAware Approximate
Fri 08:10:15 AM 13.5214 -73.7859 231° Southwest  Level FlightAware Approximate
Fri 08:11:15 AM 13.4498 -73.8756 231° Southwest  Level FlightAware Approximate
Fri 08:12:15 AM 13.3782 -73.9652 231° Southwest  Level FlightAware Approximate
Fri 08:13:15 AM 13.3066 -74.0548 231° Southwest  Level FlightAware Approximate
Fri 08:14:15 AM 13.2350 -74.1443 231° Southwest  Level FlightAware Approximate
Fri 08:15:15 AM 13.1633 -74.2337 231° Southwest  Level FlightAware Approximate
Fri 08:16:15 AM 13.0916 -74.3231 231° Southwest  Level FlightAware Approximate
Fri 08:17:15 AM 13.0199 -74.4125 230° Southwest  Level FlightAware Approximate
Fri 08:18:15 AM 12.9481 -74.5018 230° Southwest  Level FlightAware Approximate
Fri 08:19:15 AM 12.8763 -74.5910 230° Southwest  Level FlightAware Approximate
Fri 08:20:15 AM 12.8045 -74.6802 231° Southwest  Level FlightAware Approximate
Fri 08:21:15 AM 12.7335 -74.7701 231° Southwest  Level FlightAware Approximate
Fri 08:22:15 AM 12.6625 -74.8599 231° Southwest  Level FlightAware Approximate
Fri 08:23:15 AM 12.5914 -74.9497 231° Southwest  Level FlightAware Approximate
Fri 08:24:15 AM 12.5204 -75.0394 231° Southwest  Level FlightAware Approximate
Fri 08:25:15 AM 12.4493 -75.1291 231° Southwest  Level FlightAware Approximate
Fri 08:26:15 AM 12.3782 -75.2187 231° Southwest  Level FlightAware Approximate
Fri 08:27:15 AM 12.3070 -75.3083 231° Southwest  Level FlightAware Approximate
Fri 08:28:15 AM 12.2358 -75.3979 231° Southwest  Level FlightAware Approximate
Fri 08:29:15 AM 12.1646 -75.4873 231° Southwest  Level FlightAware Approximate
Fri 08:30:15 AM 12.0934 -75.5768 231° Southwest  Level FlightAware Approximate
Fri 08:31:15 AM 12.0221 -75.6662 231° Southwest  Level FlightAware Approximate
Fri 08:32:15 AM 11.9508 -75.7555 231° Southwest  Level FlightAware Approximate
Fri 08:33:15 AM 11.8795 -75.8448 231° Southwest  Level FlightAware Approximate
Fri 08:34:15 AM 11.8081 -75.9341 251° West  Level FlightAware Approximate
Fri 08:35:15 AM 11.7742 -76.0320 231° Southwest  Level FlightAware Approximate
Fri 08:36:15 AM 11.7030 -76.1213 231° Southwest  Level FlightAware Approximate
Fri 08:37:15 AM 11.6318 -76.2106 231° Southwest  Level FlightAware Approximate
Fri 08:38:15 AM 11.5605 -76.2999 231° Southwest  Level FlightAware Approximate
Fri 08:39:15 AM 11.4892 -76.3891 231° Southwest  Level FlightAware Approximate
Fri 08:40:15 AM 11.4179 -76.4782 231° Southwest  Level FlightAware Approximate
Fri 08:41:15 AM 11.3466 -76.5674 231° Southwest  Level FlightAware Approximate
Fri 08:42:15 AM 11.2752 -76.6564 231° Southwest  Level FlightAware Approximate
Fri 08:43:15 AM 11.2038 -76.7455 231° Southwest  Level FlightAware Approximate
Fri 08:44:15 AM 11.1324 -76.8344 231° Southwest  Level FlightAware Approximate
Fri 08:45:15 AM 11.0610 -76.9234 231° Southwest  Level FlightAware Approximate
Fri 08:46:15 AM 10.9895 -77.0123 231° Southwest  Level FlightAware Approximate
Fri 08:47:15 AM 10.9180 -77.1011 231° Southwest  Level FlightAware Approximate
Fri 08:48:15 AM 10.8465 -77.1899 231° Southwest  Level FlightAware Approximate
Fri 08:49:15 AM 10.7749 -77.2787 231° Southwest  Level FlightAware Approximate
Fri 08:50:15 AM 10.7033 -77.3674 231° Southwest  Level FlightAware Approximate
Fri 08:51:15 AM 10.6317 -77.4561 231° Southwest  Level FlightAware Approximate
Fri 08:52:15 AM 10.5601 -77.5447 231° Southwest  Level FlightAware Approximate
Fri 08:53:15 AM 10.4885 -77.6333 231° Southwest  Level FlightAware Approximate
Fri 08:54:15 AM 10.4168 -77.7219 231° Southwest  Level FlightAware Approximate
Fri 08:55:15 AM 10.3451 -77.8104 187° South  Level FlightAware Approximate
Fri 08:56:15 AM 10.2427 -77.8240 231° Southwest  Level FlightAware Approximate
Fri 08:57:15 AM 10.1718 -77.9128 233° Southwest  Level FlightAware Approximate
Fri 08:58:15 AM 10.1047 -78.0048 233° Southwest  Level FlightAware Approximate
Fri 08:59:15 AM 10.0364 -78.0960 234° Southwest  Level FlightAware Approximate
Fri 09:00:15 AM 9.9701 -78.1886 233° Southwest  Level FlightAware Approximate
Fri 09:01:15 AM 9.9016 -78.2796 234° Southwest  Level FlightAware Approximate
Fri 09:02:15 AM 9.8358 -78.3724 232° Southwest  Level FlightAware Approximate
Fri 09:03:15 AM 9.7669 -78.4631 232° Southwest  Level FlightAware Approximate
Fri 09:04:15 AM 9.6981 -78.5538 232° Southwest  Level FlightAware Approximate
Fri 09:05:15 AM 9.6292 -78.6444 232° Southwest  Level FlightAware Approximate
Fri 09:06:15 AM 9.5604 -78.7349 232° Southwest  Level FlightAware Approximate
Fri 09:07:15 AM 9.4914 -78.8255 229° Southwest  Level FlightAware Approximate
Fri 09:08:15 AM 9.4175 -78.9113 233° Southwest  Level FlightAware Approximate
Fri 09:09:15 AM 9.3498 -79.0027 234° Southwest  Level FlightAware Approximate
Fri 09:10:15 AM 9.2830 -79.0949 233° Southwest  Level FlightAware Approximate
Fri 09:11:15 AM 9.2144 -79.1855 233° Southwest  Level FlightAware Approximate
Fri 09:12:15 AM 9.1472 -79.2759 228° Southwest  Level FlightAware Approximate
Fri 09:13:15 AM 9.0723 -79.3610 268° West  Level FlightAware Approximate
Fri 09:14:15 AM 9.0674 -79.4751 90° East  Level Estimated
Fri 09:15:15 AM 9.0667 -79.3667 286° West  Level FlightAware Approximate
Fri 09:16:15 AM 9.0974 -79.4766 106° East  Level Estimated
Fri 09:17:15 AM 9.0667 -79.3667 286° West  Level FlightAware Approximate
Fri 09:18:15 AM 9.0974 -79.4766 106° East  Level Estimated
Fri 09:19:15 AM 9.0667 -79.3667 286° West  Level FlightAware Approximate
Fri 09:20:15 AM 9.0974 -79.4766 106° East  Level Estimated
Fri 09:21:15 AM 9.0667 -79.3667 286° West  Level FlightAware Approximate
Fri 09:22:15 AM 9.0974 -79.4766 106° East  Level Estimated
Fri 09:23:15 AM 9.0667 -79.3667 286° West  Level FlightAware Approximate
Fri 09:24:15 AM 9.0974 -79.4766 106° East  Level Estimated
Fri 09:25:15 AM 9.0667 -79.3667 286° West  Level FlightAware Approximate
Fri 09:26:15 AM 9.0974 -79.4766 106° East  Level Estimated
Fri 09:27:15 AM 9.0667 -79.3667 286° West  Level FlightAware Approximate
Fri 09:28:15 AM 9.0974 -79.4766 286° West  Level Estimated

Login

Don't have an account? Register now (free) for customized features, flight alerts, and more!